Time;durP1;ratioP1;P1;durP2;ratioP2;P2;SDS_P1;SDS_P2;PMS_P1;PMS_P2;Temp;Humidity;BMP_temperature;BMP_pressure;BME280_temperature;BME280_humidity;BME280_pressure;Samples;Min_cycle;Max_cycle;Signal;HPM_P1;HPM_P2
2023/05/30 00:02:06;;;;;;;;;;;;;;;9.01;82.35;102458.59;5026801;28;19937;-73
2023/05/30 00:04:31;;;;;;;;;;;;;;;8.94;83.12;102451.63;5007842;28;19945;-73
2023/05/30 00:06:57;;;;;;;;;;;;;;;9.09;82.06;102459.34;5008146;28;19944;-73
2023/05/30 00:09:23;;;;;;;;;;;;;;;9.06;81.91;102457.09;5017634;28;19932;-75
2023/05/30 00:11:49;;;;;;;;;;;;;;;9.06;81.73;102455.22;5003562;28;19934;-73
2023/05/30 00:14:20;;;;;;;;;;;;;;;8.97;82.60;102457.38;5035879;28;19940;-73
2023/05/30 00:16:46;;;;;;;;;;;;;;;8.87;82.67;102465.03;5011644;28;19933;-69
2023/05/30 00:19:11;;;;;;;;;;;;;;;8.89;83.16;102460.31;5012421;28;19957;-71
2023/05/30 00:21:40;;;;;;;;;;;;;;;8.92;82.42;102451.84;5031248;28;19939;-72
2023/05/30 00:24:11;;;;;;;;;;;;;;;8.77;83.01;102454.00;4998081;28;20424;-72
2023/05/30 00:26:36;;;;;;;;;;;;;;;8.77;83.01;102451.34;4996437;28;20288;-72
2023/05/30 00:29:03;;;;;;;;;;;;;;;8.81;83.03;102455.22;5040445;28;19954;-73
2023/05/30 00:31:30;;;;;;;;;;;;;;;8.82;82.53;102456.88;5030324;28;19945;-73
2023/05/30 00:33:55;;;;;;;;;;;;;;;8.80;83.03;102452.75;5018636;28;20317;-73
2023/05/30 00:36:21;;;;;;;;;;;;;;;8.82;83.04;102456.06;5030546;28;19937;-73
2023/05/30 00:38:47;;;;;;;;;;;;;;;8.73;83.47;102458.13;5013067;28;19955;-72
2023/05/30 00:41:12;;;;;;;;;;;;;;;8.62;84.04;102451.66;5048524;28;19944;-73
2023/05/30 00:43:38;;;;;;;;;;;;;;;8.51;84.25;102454.16;5046502;28;20001;-72
2023/05/30 00:46:04;;;;;;;;;;;;;;;8.42;84.95;102450.94;5032084;28;19933;-72
2023/05/30 00:48:29;;;;;;;;;;;;;;;8.53;84.48;102452.09;5013002;28;20311;-73
2023/05/30 00:50:55;;;;;;;;;;;;;;;8.58;84.01;102445.09;5039276;28;19985;-74
2023/05/30 00:53:21;;;;;;;;;;;;;;;8.53;84.43;102452.91;5026160;28;19933;-72
2023/05/30 00:55:48;;;;;;;;;;;;;;;8.55;83.74;102458.06;5021218;28;20491;-73
2023/05/30 00:58:15;;;;;;;;;;;;;;;8.67;82.66;102446.50;5028493;28;21279;-72
2023/05/30 01:00:41;;;;;;;;;;;;;;;8.55;83.47;102455.41;5015749;28;19934;-72
2023/05/30 01:03:08;;;;;;;;;;;;;;;8.41;83.99;102447.44;5027971;28;19959;-72
2023/05/30 01:05:34;;;;;;;;;;;;;;;8.43;84.43;102445.38;5044558;28;20069;-72
2023/05/30 01:07:59;;;;;;;;;;;;;;;8.34;84.33;102443.97;5013388;28;20039;-72
2023/05/30 01:10:25;;;;;;;;;;;;;;;8.26;84.48;102452.19;5029085;28;19933;-75
2023/05/30 01:13:00;;;;;;;;;;;;;;;8.43;83.76;102444.56;5031439;28;19934;-73
2023/05/30 01:15:31;;;;;;;;;;;;;;;8.23;84.82;102444.63;5018821;28;20046;-73
2023/05/30 01:17:57;;;;;;;;;;;;;;;8.34;84.01;102438.63;5030591;28;19953;-73
2023/05/30 01:20:25;;;;;;;;;;;;;;;8.22;84.90;102445.66;5020794;28;19941;-72
2023/05/30 01:22:56;;;;;;;;;;;;;;;8.55;82.84;102450.06;5026695;28;19982;-73
2023/05/30 01:25:27;;;;;;;;;;;;;;;8.37;83.16;102451.56;5047639;28;19941;-73
2023/05/30 01:27:59;;;;;;;;;;;;;;;8.43;82.91;102453.38;5045219;28;19954;-72
2023/05/30 01:30:26;;;;;;;;;;;;;;;8.42;83.61;102450.94;5009354;28;20024;-71
2023/05/30 01:32:51;;;;;;;;;;;;;;;8.42;83.05;102453.59;5026838;28;19930;-71
2023/05/30 01:35:21;;;;;;;;;;;;;;;8.37;83.21;102458.75;5006401;28;20040;-72
2023/05/30 01:37:47;;;;;;;;;;;;;;;8.42;82.97;102470.44;5046567;28;19952;-72
2023/05/30 01:40:15;;;;;;;;;;;;;;;8.27;83.80;102467.22;5042684;28;19935;-72
2023/05/30 01:42:44;;;;;;;;;;;;;;;8.30;83.75;102469.44;5046370;28;20740;-72
2023/05/30 01:45:10;;;;;;;;;;;;;;;8.26;83.72;102470.88;5027592;28;19929;-72
2023/05/30 01:47:52;;;;;;;;;;;;;;;8.18;83.96;102482.63;5012837;28;19955;-72
2023/05/30 01:50:21;;;;;;;;;;;;;;;8.21;83.73;102486.72;5007359;28;19939;-72
2023/05/30 01:52:48;;;;;;;;;;;;;;;8.19;84.06;102483.44;5024214;28;20443;-73
2023/05/30 01:55:16;;;;;;;;;;;;;;;8.18;83.93;102487.94;5026145;28;19959;-72
2023/05/30 01:57:48;;;;;;;;;;;;;;;8.09;84.72;102483.06;5019476;28;19951;-72
2023/05/30 02:00:15;;;;;;;;;;;;;;;8.04;84.53;102490.88;5057064;28;19983;-73
2023/05/30 02:02:43;;;;;;;;;;;;;;;8.04;84.27;102485.53;5017547;28;19970;-71
2023/05/30 02:05:09;;;;;;;;;;;;;;;8.06;84.68;102478.13;5028653;28;19992;-74
2023/05/30 02:07:34;;;;;;;;;;;;;;;7.89;84.68;102475.94;5036132;28;20362;-73
2023/05/30 02:10:00;;;;;;;;;;;;;;;7.93;84.81;102479.84;5017405;28;19961;-72
2023/05/30 02:12:26;;;;;;;;;;;;;;;7.84;85.58;102488.25;5029138;23;19965;-78
2023/05/30 02:14:54;;;;;;;;;;;;;;;7.73;86.06;102481.72;5036582;28;19981;-76
2023/05/30 02:17:21;;;;;;;;;;;;;;;7.80;85.37;102481.72;5022774;28;19929;-77
2023/05/30 02:19:47;;;;;;;;;;;;;;;7.71;86.04;102489.09;5025609;28;19933;-76
2023/05/30 02:22:13;;;;;;;;;;;;;;;7.68;86.24;102496.72;5021734;28;20694;-76
2023/05/30 02:24:38;;;;;;;;;;;;;;;7.49;86.42;102493.03;5041596;28;19930;-77
2023/05/30 02:27:04;;;;;;;;;;;;;;;7.52;87.15;102503.25;5024996;28;19965;-76
2023/05/30 02:29:30;;;;;;;;;;;;;;;7.82;85.37;102499.16;5041168;28;19946;-78
2023/05/30 02:31:57;;;;;;;;;;;;;;;7.93;85.20;102511.84;5035021;28;20419;-79
2023/05/30 02:34:22;;;;;;;;;;;;;;;7.85;85.10;102506.72;5023935;28;19932;-75
2023/05/30 02:36:48;;;;;;;;;;;;;;;7.89;85.36;102515.13;5024032;28;19930;-75
2023/05/30 02:39:15;;;;;;;;;;;;;;;7.83;84.91;102515.97;5021517;28;19954;-78
2023/05/30 02:41:42;;;;;;;;;;;;;;;7.99;84.42;102509.34;5020047;28;20000;-75
2023/05/30 02:44:08;;;;;;;;;;;;;;;8.13;83.36;102511.00;5019751;28;20034;-76
2023/05/30 02:46:34;;;;;;;;;;;;;;;8.03;83.98;102521.25;5020801;28;20034;-78
2023/05/30 02:49:01;;;;;;;;;;;;;;;7.88;84.97;102513.50;5022115;28;20363;-77
2023/05/30 02:51:27;;;;;;;;;;;;;;;7.92;84.66;102515.56;5023959;28;19932;-75
2023/05/30 02:53:55;;;;;;;;;;;;;;;7.99;84.04;102509.34;5049070;28;20405;-77
2023/05/30 02:56:31;;;;;;;;;;;;;;;7.96;84.78;102515.13;5020758;28;20604;-75
2023/05/30 02:59:01;;;;;;;;;;;;;;;7.97;84.28;102511.41;5027034;28;19959;-76
2023/05/30 03:01:49;;;;;;;;;;;;;;;7.92;84.89;102509.38;5036841;28;19936;-75
2023/05/30 03:04:15;;;;;;;;;;;;;;;7.89;84.75;102515.94;5005032;28;19952;-76
2023/05/30 03:06:43;;;;;;;;;;;;;;;7.85;84.69;102513.91;5024902;28;19948;-73
2023/05/30 03:09:20;;;;;;;;;;;;;;;7.78;85.26;102519.25;5011527;28;19948;-76
2023/05/30 03:11:46;;;;;;;;;;;;;;;7.66;85.55;102516.41;5011291;28;19937;-74
2023/05/30 03:14:12;;;;;;;;;;;;;;;7.56;86.31;102510.66;5014981;28;19964;-75
2023/05/30 03:16:39;;;;;;;;;;;;;;;7.73;86.12;102520.91;5013135;28;19937;-76
2023/05/30 03:19:06;;;;;;;;;;;;;;;7.76;85.70;102520.50;5025083;28;19947;-77
2023/05/30 03:21:36;;;;;;;;;;;;;;;7.71;86.37;102521.09;5022906;28;19956;-77
2023/05/30 03:24:03;;;;;;;;;;;;;;;7.62;86.84;102525.00;5021705;28;20052;-77
2023/05/30 03:26:32;;;;;;;;;;;;;;;7.58;86.91;102523.78;5015973;28;19933;-76
2023/05/30 03:28:57;;;;;;;;;;;;;;;7.64;86.67;102520.28;5024880;28;19954;-79
2023/05/30 03:31:27;;;;;;;;;;;;;;;7.72;86.77;102521.91;5034629;28;19929;-79
2023/05/30 03:33:53;;;;;;;;;;;;;;;7.62;87.23;102522.34;5039209;28;19933;-76
2023/05/30 03:36:20;;;;;;;;;;;;;;;7.73;86.93;102521.75;5021406;28;19936;-73
2023/05/30 03:38:47;;;;;;;;;;;;;;;7.88;85.79;102527.66;5035654;28;19951;-73
2023/05/30 03:41:12;;;;;;;;;;;;;;;8.01;86.04;102534.00;5022575;28;19982;-74
2023/05/30 03:43:38;;;;;;;;;;;;;;;8.08;85.24;102540.16;5019567;28;19984;-78
2023/05/30 03:46:03;;;;;;;;;;;;;;;8.34;83.77;102540.06;5020471;28;19932;-74
2023/05/30 03:48:29;;;;;;;;;;;;;;;8.34;83.73;102528.56;5017929;28;19998;-76
2023/05/30 03:50:54;;;;;;;;;;;;;;;8.43;84.00;102533.50;5018469;28;19998;-79
2023/05/30 03:53:19;;;;;;;;;;;;;;;8.53;83.94;102537.53;5042221;28;20302;-77
2023/05/30 03:55:45;;;;;;;;;;;;;;;8.61;83.34;102537.31;5041023;28;19932;-77
2023/05/30 03:58:11;;;;;;;;;;;;;;;8.72;83.44;102537.47;5020911;28;20027;-74
2023/05/30 04:00:36;;;;;;;;;;;;;;;8.87;82.93;102542.50;5056370;28;19927;-75
2023/05/30 04:03:02;;;;;;;;;;;;;;;8.98;81.46;102546.38;5037783;28;20039;-77
2023/05/30 04:05:28;;;;;;;;;;;;;;;9.17;80.53;102542.75;5019078;28;19935;-75
2023/05/30 04:07:53;;;;;;;;;;;;;;;9.28;80.34;102547.41;5026573;28;20030;-75
2023/05/30 04:10:19;;;;;;;;;;;;;;;9.26;80.83;102546.78;5020454;28;19943;-74
2023/05/30 04:12:44;;;;;;;;;;;;;;;9.27;79.82;102547.59;5044177;28;19938;-76
2023/05/30 04:15:10;;;;;;;;;;;;;;;9.36;80.79;102554.34;5035135;28;19941;-75
2023/05/30 04:17:36;;;;;;;;;;;;;;;9.50;79.04;102547.84;5017978;28;19947;-74
2023/05/30 04:20:04;;;;;;;;;;;;;;;9.56;78.55;102549.66;5020002;28;19940;-75
2023/05/30 04:22:32;;;;;;;;;;;;;;;9.70;78.46;102553.03;5033667;28;20390;-78
2023/05/30 04:24:59;;;;;;;;;;;;;;;9.60;78.23;102551.88;5001229;28;19960;-77
2023/05/30 04:27:24;;;;;;;;;;;;;;;9.69;78.47;102562.13;5012374;28;19938;-73
2023/05/30 04:29:50;;;;;;;;;;;;;;;9.67;79.18;102561.50;5010796;28;19930;-74
2023/05/30 04:32:17;;;;;;;;;;;;;;;9.66;78.33;102548.34;5040918;28;19931;-77
2023/05/30 04:34:43;;;;;;;;;;;;;;;9.60;78.69;102559.91;5033609;28;20961;-75
2023/05/30 04:37:11;;;;;;;;;;;;;;;9.63;78.62;102551.47;5020592;28;19990;-76
2023/05/30 04:39:38;;;;;;;;;;;;;;;9.70;78.10;102558.41;5008956;28;19934;-78
2023/05/30 04:42:04;;;;;;;;;;;;;;;9.66;78.00;102556.38;5034692;28;20083;-76
2023/05/30 04:44:38;;;;;;;;;;;;;;;9.77;77.54;102567.19;5025754;28;19961;-76
2023/05/30 04:47:10;;;;;;;;;;;;;;;9.87;77.96;102566.66;5021096;28;20037;-73
2023/05/30 04:49:39;;;;;;;;;;;;;;;9.77;77.83;102561.81;5035715;28;19947;-79
2023/05/30 04:52:06;;;;;;;;;;;;;;;9.81;77.46;102556.84;5009233;28;19943;-74
2023/05/30 04:54:32;;;;;;;;;;;;;;;9.85;77.50;102564.22;5014739;28;19940;-75
2023/05/30 04:56:57;;;;;;;;;;;;;;;9.96;77.12;102565.38;5040645;28;19929;-75
2023/05/30 04:59:23;;;;;;;;;;;;;;;10.01;77.85;102570.03;5015037;28;20314;-77
2023/05/30 05:01:49;;;;;;;;;;;;;;;10.06;77.16;102564.84;5037737;28;19936;-77
2023/05/30 05:04:15;;;;;;;;;;;;;;;10.07;76.95;102561.13;5019961;28;19998;-75
2023/05/30 05:06:42;;;;;;;;;;;;;;;10.11;76.30;102565.81;5016655;28;20029;-76
2023/05/30 05:09:07;;;;;;;;;;;;;;;10.15;76.23;102568.03;5052674;28;19951;-77
2023/05/30 05:11:32;;;;;;;;;;;;;;;10.17;76.29;102568.66;5045407;28;19952;-76
2023/05/30 05:13:58;;;;;;;;;;;;;;;10.25;76.37;102579.09;5023368;28;19935;-75
2023/05/30 05:16:24;;;;;;;;;;;;;;;10.32;76.08;102579.84;5038034;28;20278;-77
2023/05/30 05:18:49;;;;;;;;;;;;;;;10.27;76.03;102582.38;5020213;28;19955;-75
2023/05/30 05:21:14;;;;;;;;;;;;;;;10.21;76.76;102576.00;5042765;28;19930;-75
2023/05/30 05:23:40;;;;;;;;;;;;;;;10.35;76.10;102590.09;5019098;28;19949;-77
2023/05/30 05:26:06;;;;;;;;;;;;;;;10.36;75.49;102592.56;5037651;28;19938;-77
2023/05/30 05:28:32;;;;;;;;;;;;;;;10.23;76.16;102584.69;5024391;28;19969;-77
2023/05/30 05:30:58;;;;;;;;;;;;;;;10.23;77.05;102583.84;5021890;28;19929;-75
2023/05/30 05:33:24;;;;;;;;;;;;;;;10.23;76.59;102589.19;5032453;28;20507;-75
2023/05/30 05:35:49;;;;;;;;;;;;;;;10.51;76.96;102589.53;5010257;28;19995;-76
2023/05/30 05:38:16;;;;;;;;;;;;;;;10.61;75.51;102592.47;5023886;28;20015;-74
2023/05/30 05:40:42;;;;;;;;;;;;;;;10.68;75.25;102587.03;5024467;28;19931;-76
2023/05/30 05:43:08;;;;;;;;;;;;;;;10.70;76.49;102589.50;5020488;28;19964;-73
2023/05/30 05:45:35;;;;;;;;;;;;;;;10.60;77.41;102593.53;5000544;28;19934;-77
2023/05/30 05:48:00;;;;;;;;;;;;;;;10.44;76.49;102593.31;5021011;28;20133;-74
2023/05/30 05:50:27;;;;;;;;;;;;;;;10.54;76.32;102594.41;5036843;28;19933;-79
2023/05/30 05:52:53;;;;;;;;;;;;;;;10.54;75.42;102605.13;5004622;28;19940;-75
2023/05/30 05:55:18;;;;;;;;;;;;;;;10.57;76.33;102604.69;5003411;28;19944;-75
2023/05/30 05:57:45;;;;;;;;;;;;;;;10.51;75.87;102597.56;5026270;28;20116;-75
2023/05/30 06:00:12;;;;;;;;;;;;;;;10.61;76.03;102602.38;5027943;28;19985;-74
2023/05/30 06:02:40;;;;;;;;;;;;;;;10.49;75.90;102604.97;5021532;28;19951;-75
2023/05/30 06:05:07;;;;;;;;;;;;;;;10.66;76.44;102595.31;5035240;28;19940;-75
2023/05/30 06:07:34;;;;;;;;;;;;;;;10.63;75.52;102601.13;5002121;28;20070;-77
2023/05/30 06:10:00;;;;;;;;;;;;;;;10.54;75.98;102605.13;5008227;28;19941;-78
2023/05/30 06:12:28;;;;;;;;;;;;;;;10.68;75.43;102604.97;5011042;28;19935;-75
2023/05/30 06:14:56;;;;;;;;;;;;;;;10.78;75.55;102606.09;5020569;28;19933;-74
2023/05/30 06:17:22;;;;;;;;;;;;;;;10.81;75.80;102602.13;5017934;28;20097;-75
2023/05/30 06:19:50;;;;;;;;;;;;;;;10.96;74.74;102610.59;5037438;28;20404;-73
2023/05/30 06:22:17;;;;;;;;;;;;;;;11.04;74.61;102604.94;5033790;28;19936;-78
2023/05/30 06:24:43;;;;;;;;;;;;;;;11.13;74.27;102598.19;5009980;28;20500;-75
2023/05/30 06:27:11;;;;;;;;;;;;;;;11.08;74.36;102606.09;5003948;28;20096;-76
2023/05/30 06:29:38;;;;;;;;;;;;;;;11.04;72.79;102599.56;5001845;28;19951;-75
2023/05/30 06:32:05;;;;;;;;;;;;;;;11.12;73.73;102601.94;5013454;28;19947;-75
2023/05/30 06:34:31;;;;;;;;;;;;;;;11.11;73.74;102605.66;5036461;28;19943;-75
2023/05/30 06:36:58;;;;;;;;;;;;;;;11.23;73.59;102607.56;5005647;28;19946;-75
2023/05/30 06:39:24;;;;;;;;;;;;;;;11.09;74.65;102618.47;5007284;28;19961;-75
2023/05/30 06:41:50;;;;;;;;;;;;;;;10.88;74.40;102618.94;5003019;28;19935;-75
2023/05/30 06:44:35;;;;;;;;;;;;;;;10.86;74.74;102619.19;5024355;28;20084;-74
2023/05/30 06:47:01;;;;;;;;;;;;;;;10.82;74.95;102630.56;5037633;28;20666;-76
2023/05/30 06:49:27;;;;;;;;;;;;;;;10.81;74.86;102627.06;5004520;28;20044;-76
2023/05/30 06:51:53;;;;;;;;;;;;;;;10.72;76.09;102631.13;5017873;28;20301;-78
2023/05/30 06:54:20;;;;;;;;;;;;;;;10.81;75.91;102628.94;5007359;28;19939;-76
2023/05/30 06:56:47;;;;;;;;;;;;;;;10.86;75.46;102637.13;5007076;28;20035;-76
2023/05/30 06:59:13;;;;;;;;;;;;;;;11.03;76.00;102624.72;5022002;28;19985;-77
2023/05/30 07:01:39;;;;;;;;;;;;;;;10.98;74.56;102621.94;5003388;28;19938;-74
2023/05/30 07:04:05;;;;;;;;;;;;;;;11.21;72.93;102627.38;5015735;28;19960;-77
2023/05/30 07:06:31;;;;;;;;;;;;;;;11.20;75.46;102631.09;5005396;28;19934;-76
2023/05/30 07:08:58;;;;;;;;;;;;;;;11.33;73.95;102631.97;5033061;28;19956;-78
2023/05/30 07:11:24;;;;;;;;;;;;;;;11.27;72.92;102630.19;5005343;28;19936;-76
2023/05/30 07:13:50;;;;;;;;;;;;;;;11.61;72.34;102615.25;5025296;28;20054;-77
2023/05/30 07:16:15;;;;;;;;;;;;;;;11.63;72.12;102627.38;5002805;28;19980;-76
2023/05/30 07:18:41;;;;;;;;;;;;;;;11.69;72.57;102623.75;5001063;28;19950;-77
2023/05/30 07:21:08;;;;;;;;;;;;;;;11.51;71.48;102629.19;5033003;28;20363;-74
2023/05/30 07:23:35;;;;;;;;;;;;;;;11.76;72.96;102635.22;5005398;28;19955;-73
2023/05/30 07:26:01;;;;;;;;;;;;;;;11.73;71.87;102626.81;4998028;28;20523;-77
2023/05/30 07:28:27;;;;;;;;;;;;;;;11.81;73.59;102625.69;5025367;28;19958;-76
2023/05/30 07:30:53;;;;;;;;;;;;;;;11.59;72.49;102628.91;5017599;28;19928;-79
2023/05/30 07:33:19;;;;;;;;;;;;;;;11.58;71.18;102629.91;5011027;28;19973;-73
2023/05/30 07:35:45;;;;;;;;;;;;;;;11.51;71.20;102637.25;5035472;28;19929;-78
2023/05/30 07:38:11;;;;;;;;;;;;;;;11.80;73.08;102635.56;5014272;28;19956;-74
2023/05/30 07:40:37;;;;;;;;;;;;;;;12.03;72.35;102640.19;5002485;28;19936;-76
2023/05/30 07:43:03;;;;;;;;;;;;;;;11.90;71.27;102635.84;5000326;28;19959;-77
2023/05/30 07:45:30;;;;;;;;;;;;;;;12.11;70.18;102636.31;5000761;28;19936;-75
2023/05/30 07:47:56;;;;;;;;;;;;;;;12.06;69.59;102638.88;5017882;28;19958;-75
2023/05/30 07:50:22;;;;;;;;;;;;;;;12.29;70.58;102631.66;5001746;28;19932;-76
2023/05/30 07:52:48;;;;;;;;;;;;;;;11.97;70.35;102630.34;5016779;28;19967;-75
2023/05/30 07:55:15;;;;;;;;;;;;;;;11.96;69.62;102639.47;5004816;28;19935;-77
2023/05/30 07:57:40;;;;;;;;;;;;;;;12.09;69.12;102647.31;5017329;28;20067;-73
2023/05/30 08:00:08;;;;;;;;;;;;;;;12.21;71.58;102647.31;5029676;28;19942;-75
2023/05/30 08:02:37;;;;;;;;;;;;;;;12.11;69.75;102649.75;5040476;28;19938;-77
2023/05/30 08:05:03;;;;;;;;;;;;;;;11.90;71.55;102637.72;5017957;28;19937;-79
2023/05/30 08:07:31;;;;;;;;;;;;;;;12.12;71.78;102651.38;5038538;28;20312;-76
2023/05/30 08:10:00;;;;;;;;;;;;;;;12.18;70.84;102642.38;5000415;28;19937;-76
2023/05/30 08:12:29;;;;;;;;;;;;;;;12.05;70.74;102646.13;5008436;28;19937;-74
2023/05/30 09:00:48;;;;;;;;;;;;;;;12.26;70.56;102655.47;6052811;23;20000;-85
2023/05/30 09:03:15;;;;;;;;;;;;;;;12.29;70.53;102658.50;4908683;29;19978;-86
2023/05/30 09:05:43;;;;;;;;;;;;;;;12.43;69.93;102660.97;4921986;29;20349;-87
2023/05/30 09:08:10;;;;;;;;;;;;;;;12.74;69.73;102649.00;4936153;28;19954;-85
2023/05/30 09:10:36;;;;;;;;;;;;;;;12.68;70.10;102658.81;4911670;29;20006;-86
2023/05/30 09:13:02;;;;;;;;;;;;;;;12.69;69.05;102655.06;4913922;29;19966;-86
2023/05/30 09:15:27;;;;;;;;;;;;;;;12.93;68.22;102660.38;4929642;29;19938;-85
2023/05/30 09:17:53;;;;;;;;;;;;;;;12.87;69.17;102655.97;4908176;29;19932;-88
2023/05/30 09:20:20;;;;;;;;;;;;;;;13.01;67.52;102658.16;4922928;29;20027;-86
2023/05/30 09:22:45;;;;;;;;;;;;;;;13.10;67.08;102666.66;4911098;29;19997;-87
2023/05/30 09:25:12;;;;;;;;;;;;;;;13.02;67.87;102658.97;4914341;29;19992;-85
2023/05/30 09:27:38;;;;;;;;;;;;;;;12.74;67.80;102657.88;4931868;29;19992;-85
2023/05/30 09:30:10;;;;;;;;;;;;;;;13.16;67.30;102654.94;4919890;29;19992;-84
2023/05/30 09:32:36;;;;;;;;;;;;;;;13.36;67.71;102663.41;4919519;29;19941;-84
2023/05/30 09:35:06;;;;;;;;;;;;;;;13.23;68.01;102663.72;4925541;29;19935;-86
2023/05/30 09:37:39;;;;;;;;;;;;;;;13.26;66.77;102671.28;4907728;29;19932;-84
2023/05/30 09:40:09;;;;;;;;;;;;;;;13.18;67.55;102674.34;4915566;28;19934;-82
2023/05/30 09:42:44;;;;;;;;;;;;;;;13.21;66.63;102673.06;4908805;29;20537;-83
2023/05/30 09:45:11;;;;;;;;;;;;;;;13.26;67.69;102682.06;4947845;29;19942;-82
2023/05/30 09:47:37;;;;;;;;;;;;;;;13.34;66.63;102684.38;4943873;29;19932;-81
2023/05/30 09:50:03;;;;;;;;;;;;;;;13.50;67.96;102684.66;4913350;29;19944;-86
2023/05/30 09:52:29;;;;;;;;;;;;;;;13.35;66.86;102688.72;4939705;29;19933;-82
2023/05/30 09:54:55;;;;;;;;;;;;;;;13.41;67.82;102684.22;4930785;29;20410;-84
2023/05/30 09:57:21;;;;;;;;;;;;;;;13.36;66.37;102687.63;4907342;29;19929;-85
2023/05/30 09:59:48;;;;;;;;;;;;;;;13.69;66.58;102691.47;4940818;29;19938;-86
2023/05/30 10:02:20;;;;;;;;;;;;;;;13.68;64.32;102683.59;4942316;29;20363;-83
2023/05/30 10:04:47;;;;;;;;;;;;;;;13.45;66.53;102695.31;4924266;29;19985;-85
2023/05/30 10:07:14;;;;;;;;;;;;;;;13.21;66.26;102690.06;4942252;29;19940;-87
2023/05/30 10:09:40;;;;;;;;;;;;;;;13.44;67.46;102699.88;4937476;29;19940;-86
2023/05/30 10:12:06;;;;;;;;;;;;;;;13.62;66.24;102698.88;4914110;29;19950;-86
2023/05/30 10:14:31;;;;;;;;;;;;;;;13.69;65.32;102696.84;4922049;29;20021;-87
2023/05/30 10:17:03;;;;;;;;;;;;;;;13.90;64.68;102693.44;4936976;29;20025;-82
2023/05/30 10:19:34;;;;;;;;;;;;;;;14.10;66.05;102692.13;4904583;29;19941;-86
2023/05/30 10:21:59;;;;;;;;;;;;;;;14.09;64.58;102695.88;4937576;29;19977;-84
2023/05/30 10:24:25;;;;;;;;;;;;;;;13.93;64.66;102692.94;4931293;29;19945;-84
2023/05/30 10:26:54;;;;;;;;;;;;;;;13.90;64.49;102698.81;4920010;29;19933;-84
2023/05/30 10:29:21;;;;;;;;;;;;;;;14.38;64.49;102689.31;4905170;29;20296;-84
2023/05/30 10:31:49;;;;;;;;;;;;;;;14.44;63.19;102685.63;4921602;29;20624;-86
2023/05/30 10:34:16;;;;;;;;;;;;;;;14.68;64.42;102690.84;4905654;29;19987;-86
2023/05/30 10:36:44;;;;;;;;;;;;;;;14.62;64.04;102686.44;4913902;29;20318;-87
2023/05/30 10:39:27;;;;;;;;;;;;;;;14.31;63.76;102683.28;4932052;29;19936;-87
2023/05/30 10:41:53;;;;;;;;;;;;;;;14.47;63.42;102690.56;4911897;29;19956;-86
2023/05/30 10:44:34;;;;;;;;;;;;;;;14.67;62.73;102690.00;4934603;29;20357;-87
2023/05/30 10:47:23;;;;;;;;;;;;;;;14.43;64.18;102689.41;4930221;29;19933;-86
2023/05/30 10:49:49;;;;;;;;;;;;;;;14.51;64.19;102682.81;4923672;29;19973;-88
2023/05/30 10:52:17;;;;;;;;;;;;;;;14.59;63.90;102684.25;4936248;29;19958;-87
2023/05/30 10:54:46;;;;;;;;;;;;;;;14.35;63.59;102683.59;4945081;29;20001;-87
2023/05/30 10:57:20;;;;;;;;;;;;;;;14.35;65.17;102684.41;4914799;29;19938;-85
2023/05/30 10:59:46;;;;;;;;;;;;;;;14.48;64.92;102678.69;4923022;29;19935;-87
2023/05/30 11:02:17;;;;;;;;;;;;;;;14.53;65.36;102686.06;4914765;29;19960;-86
2023/05/30 11:04:42;;;;;;;;;;;;;;;14.36;64.15;102682.53;4942977;29;19953;-87
2023/05/30 11:07:09;;;;;;;;;;;;;;;14.60;63.60;102680.47;4916020;29;19958;-86
2023/05/30 11:09:39;;;;;;;;;;;;;;;14.76;63.94;102676.91;4907829;29;19940;-87
2023/05/30 11:12:08;;;;;;;;;;;;;;;14.75;63.73;102678.78;4906652;29;19951;-86
2023/05/30 11:14:35;;;;;;;;;;;;;;;14.43;64.67;102669.72;4927247;29;19947;-88
2023/05/30 11:17:05;;;;;;;;;;;;;;;14.86;63.88;102671.66;4908757;29;19977;-86
2023/05/30 11:19:38;;;;;;;;;;;;;;;14.96;61.99;102673.66;4901842;29;19932;-87
2023/05/30 11:22:08;;;;;;;;;;;;;;;15.21;61.17;102665.03;4925454;29;19962;-88
2023/05/30 11:24:34;;;;;;;;;;;;;;;15.39;61.17;102661.16;4895761;29;19948;-89
2023/05/30 11:27:05;;;;;;;;;;;;;;;15.15;62.06;102671.44;4910684;29;19993;-86
2023/05/30 11:29:36;;;;;;;;;;;;;;;15.03;61.55;102669.69;4922358;29;19941;-88
2023/05/30 11:32:05;;;;;;;;;;;;;;;15.10;60.78;102669.47;4919139;29;19957;-86
2023/05/30 11:34:31;;;;;;;;;;;;;;;14.90;61.65;102667.41;4933526;29;19936;-86
2023/05/30 11:36:56;;;;;;;;;;;;;;;15.35;63.45;102660.84;4892165;29;19931;-85
2023/05/30 11:39:22;;;;;;;;;;;;;;;15.43;62.53;102662.28;4930594;29;19936;-86
2023/05/30 11:41:48;;;;;;;;;;;;;;;15.21;61.42;102665.03;4933988;29;19956;-87
2023/05/30 11:44:14;;;;;;;;;;;;;;;15.39;60.97;102670.09;4939610;29;20031;-86
2023/05/30 11:46:40;;;;;;;;;;;;;;;15.34;60.29;102664.63;4918993;29;20300;-86
2023/05/30 11:49:05;;;;;;;;;;;;;;;15.81;60.08;102667.50;4932785;29;19935;-85
2023/05/30 11:51:31;;;;;;;;;;;;;;;15.47;59.34;102658.81;4919238;29;19959;-84
2023/05/30 11:54:01;;;;;;;;;;;;;;;15.68;59.45;102667.13;4926967;29;19986;-84
2023/05/30 11:56:31;;;;;;;;;;;;;;;16.70;57.72;102654.31;4920243;29;20395;-85
2023/05/30 11:58:57;;;;;;;;;;;;;;;16.34;59.64;102660.31;4914059;29;19938;-85
2023/05/30 12:01:23;;;;;;;;;;;;;;;15.97;59.72;102662.22;4897082;29;19960;-86
2023/05/30 12:03:48;;;;;;;;;;;;;;;16.09;57.81;102666.38;4912763;29;19950;-86
2023/05/30 12:06:14;;;;;;;;;;;;;;;15.77;58.93;102668.28;4936414;29;19940;-87
2023/05/30 12:08:44;;;;;;;;;;;;;;;15.78;59.59;102669.91;4922827;29;19967;-91
2023/05/30 12:11:11;;;;;;;;;;;;;;;16.06;58.59;102656.09;4886278;29;19979;-88
2023/05/30 12:13:36;;;;;;;;;;;;;;;16.27;59.20;102656.22;4901893;29;19940;-89
2023/05/30 12:16:02;;;;;;;;;;;;;;;15.97;58.76;102657.63;4901391;29;20121;-87
2023/05/30 12:18:28;;;;;;;;;;;;;;;16.00;58.48;102662.53;4901834;29;20320;-89
2023/05/30 12:20:53;;;;;;;;;;;;;;;16.29;58.01;102656.78;4901939;29;19951;-89
2023/05/30 12:23:25;;;;;;;;;;;;;;;16.19;57.87;102654.81;4901620;29;19959;-90
2023/05/30 12:25:54;;;;;;;;;;;;;;;16.33;57.70;102656.00;4901789;29;19936;-88
2023/05/30 12:28:21;;;;;;;;;;;;;;;16.16;58.49;102652.63;4902280;29;19937;-89
2023/05/30 12:30:47;;;;;;;;;;;;;;;16.35;59.37;102653.84;4901714;29;20441;-89
2023/05/30 12:33:13;;;;;;;;;;;;;;;16.77;57.55;102652.16;4903734;29;19940;-90
2023/05/30 12:35:39;;;;;;;;;;;;;;;16.62;56.37;102659.09;4889321;29;19947;-89
2023/05/30 12:38:07;;;;;;;;;;;;;;;17.59;55.25;102651.25;4920307;29;19929;-89
2023/05/30 12:40:34;;;;;;;;;;;;;;;17.40;56.11;102660.97;4889129;29;20010;-88
2023/05/30 12:43:00;;;;;;;;;;;;;;;17.26;53.76;102662.59;4904817;29;19954;-89
2023/05/30 12:45:26;;;;;;;;;;;;;;;17.44;52.98;102651.25;4939323;29;19930;-88
2023/05/30 12:47:52;;;;;;;;;;;;;;;16.83;56.75;102638.38;4923368;29;19945;-90
2023/05/30 12:50:18;;;;;;;;;;;;;;;16.28;57.89;102649.75;4907931;29;20322;-89
2023/05/30 12:52:44;;;;;;;;;;;;;;;16.51;56.87;102634.97;4939211;29;19936;-87
2023/05/30 12:55:12;;;;;;;;;;;;;;;16.23;56.94;102638.88;4908200;29;19947;-87
2023/05/30 12:57:37;;;;;;;;;;;;;;;16.52;56.69;102639.31;4939656;29;19937;-90
2023/05/30 13:00:03;;;;;;;;;;;;;;;16.39;56.10;102643.28;4905165;29;19967;-89
2023/05/30 13:02:31;;;;;;;;;;;;;;;16.35;59.35;102637.63;4936770;29;19940;-89
2023/05/30 13:04:57;;;;;;;;;;;;;;;16.37;57.80;102648.97;4889631;29;20041;-89
2023/05/30 13:07:23;;;;;;;;;;;;;;;16.31;57.79;102651.91;4916864;29;19982;-89
2023/05/30 13:09:49;;;;;;;;;;;;;;;16.50;56.48;102644.97;4901103;29;19940;-86
2023/05/30 13:12:15;;;;;;;;;;;;;;;16.34;57.10;102646.00;4900854;29;19957;-89
2023/05/30 13:14:42;;;;;;;;;;;;;;;16.37;56.71;102640.03;4916579;29;19931;-90
2023/05/30 13:17:08;;;;;;;;;;;;;;;16.81;58.30;102648.69;4938020;29;19935;-88
2023/05/30 13:19:34;;;;;;;;;;;;;;;16.92;59.14;102652.22;4942480;29;19930;-88
2023/05/30 13:22:03;;;;;;;;;;;;;;;16.41;58.47;102651.16;4942037;29;20044;-87
2023/05/30 13:24:30;;;;;;;;;;;;;;;16.22;57.73;102657.00;4926309;29;20353;-87
2023/05/30 13:26:56;;;;;;;;;;;;;;;16.37;58.60;102662.50;4942754;29;19934;-87